Time,TemperatureF,DewpointF,PressureIn,WindDirection,WindDirectionDegrees,WindSpeedMPH,WindSpeedGustMPH,Humidity,HourlyPrecipIn,Conditions,Clouds,dailyrainin,SoftwareType,DateUTC
2013-08-18 09:09:00,65.5,45.8,-100.00,NNW,341,0.0,0.0,49,0.00,,,0.00,VWS V14.01,2013-08-18 16:09:00,
2013-08-18 09:14:00,64.8,46.2,-100.00,SSE,166,2.7,5.4,51,0.00,,,0.00,VWS V14.01,2013-08-18 16:14:00,
2013-08-18 09:19:00,65.1,46.0,-100.00,SSW,195,2.7,5.4,50,0.00,,,0.00,VWS V14.01,2013-08-18 16:19:00,
2013-08-18 09:25:00,65.5,45.8,-100.00,South,190,0.0,5.4,49,0.00,,,0.00,VWS V14.01,2013-08-18 16:25:00,
2013-08-18 09:30:00,66.2,44.8,-100.00,WSW,246,0.0,5.4,46,0.00,,,0.00,VWS V14.01,2013-08-18 16:30:00,
2013-08-18 09:35:00,66.6,45.7,-100.00,SSW,210,2.2,5.4,47,0.00,,,0.00,VWS V14.01,2013-08-18 16:35:00,
2013-08-18 09:40:00,67.3,45.8,-100.00,WSW,243,2.7,5.4,46,0.00,,,0.00,VWS V14.01,2013-08-18 16:40:00,
2013-08-18 09:45:00,67.8,45.7,-100.00,SW,236,0.0,5.4,45,0.00,,,0.00,VWS V14.01,2013-08-18 16:45:00,
2013-08-18 09:50:00,68.4,45.6,-100.00,West,259,0.0,5.4,44,0.00,,,0.00,VWS V14.01,2013-08-18 16:50:00,
2013-08-18 12:43:00,68.5,45.2,-100.00,South,186,2.7,5.4,43,0.00,,,0.00,VWS V14.01,2013-08-18 19:43:00,
2013-08-18 12:48:00,83.1,40.4,-100.00,SW,223,0.0,5.4,22,0.00,,,0.00,VWS V14.01,2013-08-18 19:48:00,
2013-08-18 12:53:00,83.5,39.5,-100.00,East,86,2.7,5.4,21,0.00,,,0.00,VWS V14.01,2013-08-18 19:53:00,
2013-08-18 12:58:00,84.2,40.1,-100.00,NE,52,2.7,5.8,21,0.00,,,0.00,VWS V14.01,2013-08-18 19:58:00,
2013-08-18 13:04:00,84.4,39.0,-100.00,NNW,338,3.6,4.0,20,0.00,,,0.00,VWS V14.01,2013-08-18 20:04:00,
2013-08-18 13:09:00,84.4,39.0,-100.00,NW,319,2.7,6.3,20,0.00,,,0.00,VWS V14.01,2013-08-18 20:09:00,
2013-08-18 13:42:00,86.4,39.3,-100.00,East,89,0.0,6.3,19,0.00,,,0.00,VWS V14.01,2013-08-18 20:42:00,
2013-08-18 13:48:00,86.2,39.1,-100.00,ENE,73,0.0,6.3,19,0.00,,,0.00,VWS V14.01,2013-08-18 20:48:00,
2013-08-18 13:53:00,86.0,39.0,-100.00,ESE,105,3.1,6.3,19,0.00,,,0.00,VWS V14.01,2013-08-18 20:53:00,
2013-08-18 13:58:00,86.4,39.3,-100.00,East,80,4.9,6.3,19,0.00,,,0.00,VWS V14.01,2013-08-18 20:58:00,
2013-08-18 14:03:00,86.5,39.4,-100.00,North,0,0.0,5.4,19,0.00,,,0.00,VWS V14.01,2013-08-18 21:03:00,
2013-08-18 14:08:00,86.4,39.3,-100.00,NNW,332,2.7,5.4,19,0.00,,,0.00,VWS V14.01,2013-08-18 21:08:00,
2013-08-18 14:13:00,86.5,39.4,-100.00,ENE,77,2.7,5.4,19,0.00,,,0.00,VWS V14.01,2013-08-18 21:13:00,
2013-08-18 14:18:00,87.1,39.9,-100.00,East,86,4.0,5.4,19,0.00,,,0.00,VWS V14.01,2013-08-18 21:18:00,
2013-08-18 14:23:00,87.1,39.9,-100.00,East,83,2.7,5.4,19,0.00,,,0.00,VWS V14.01,2013-08-18 21:23:00,
2013-08-18 14:28:00,87.4,40.2,-100.00,ENE,71,3.6,6.7,19,0.00,,,0.00,VWS V14.01,2013-08-18 21:28:00,
2013-08-18 14:34:00,87.6,40.3,-100.00,NNW,334,0.0,6.7,19,0.00,,,0.00,VWS V14.01,2013-08-18 21:34:00,
2013-08-18 14:39:00,87.3,40.0,-100.00,NE,50,0.0,6.7,19,0.00,,,0.00,VWS V14.01,2013-08-18 21:39:00,
2013-08-18 14:44:00,87.3,40.0,-100.00,East,89,2.2,6.7,19,0.00,,,0.00,VWS V14.01,2013-08-18 21:44:00,
2013-08-18 14:49:00,87.6,40.3,-100.00,ESE,105,0.0,6.7,19,0.00,,,0.00,VWS V14.01,2013-08-18 21:49:00,
2013-08-18 14:54:00,88.3,40.9,-100.00,East,97,0.0,6.7,19,0.00,,,0.00,VWS V14.01,2013-08-18 21:54:00,
2013-08-18 14:59:00,88.9,41.3,-100.00,ESE,107,0.0,6.7,19,0.00,,,0.00,VWS V14.01,2013-08-18 21:59:00,
2013-08-18 15:04:00,89.1,41.5,-100.00,East,83,2.7,5.4,19,0.00,,,0.00,VWS V14.01,2013-08-18 22:04:00,
2013-08-18 15:09:00,88.5,41.0,-100.00,ENE,70,2.2,5.4,19,0.00,,,0.00,VWS V14.01,2013-08-18 22:09:00,
2013-08-18 15:14:00,88.2,40.8,-100.00,NW,326,3.6,5.8,19,0.00,,,0.00,VWS V14.01,2013-08-18 22:14:00,
2013-08-18 15:19:00,87.6,40.3,-100.00,NNW,333,4.9,5.8,19,0.00,,,0.00,VWS V14.01,2013-08-18 22:19:00,
2013-08-18 15:24:00,88.0,40.6,-100.00,West,274,0.0,5.8,19,0.00,,,0.00,VWS V14.01,2013-08-18 22:24:00,
2013-08-18 15:29:00,88.5,41.0,-100.00,NNW,345,3.6,5.8,19,0.00,,,0.00,VWS V14.01,2013-08-18 22:29:00,
2013-08-18 15:34:00,88.5,41.0,-100.00,North,0,0.0,5.8,19,0.00,,,0.00,VWS V14.01,2013-08-18 22:34:00,
2013-08-18 15:39:00,88.7,41.2,-100.00,East,98,2.7,5.8,19,0.00,,,0.00,VWS V14.01,2013-08-18 22:39:00,
2013-08-18 15:44:00,88.7,41.2,-100.00,North,353,4.0,5.8,19,0.00,,,0.00,VWS V14.01,2013-08-18 22:44:00,
2013-08-18 15:49:00,88.3,40.9,-100.00,NE,40,0.0,5.8,19,0.00,,,0.00,VWS V14.01,2013-08-18 22:49:00,
2013-08-18 15:56:00,88.2,40.8,-100.00,North,353,0.0,5.8,19,0.00,,,0.00,VWS V14.01,2013-08-18 22:56:00,
2013-08-18 16:01:00,88.0,40.6,-100.00,NNW,327,0.0,5.4,19,0.00,,,0.00,VWS V14.01,2013-08-18 23:01:00,
2013-08-18 16:06:00,88.2,40.8,-100.00,NNW,344,0.0,7.2,19,0.00,,,0.00,VWS V14.01,2013-08-18 23:06:00,
2013-08-18 16:09:00,88.7,41.2,-100.00,NW,324,5.8,7.2,19,0.00,,,0.00,VWS V14.01,2013-08-18 23:09:00,
2013-08-18 16:52:00,87.8,40.5,-100.00,NE,44,0.0,7.2,19,0.00,,,0.00,VWS V14.01,2013-08-18 23:52:00,
2013-08-18 16:58:00,87.6,40.3,-100.00,ENE,74,3.1,7.6,19,0.00,,,0.00,VWS V14.01,2013-08-18 23:58:00,
2013-08-18 17:03:00,87.8,40.5,-100.00,ENE,75,0.0,3.6,19,0.00,,,0.00,VWS V14.01,2013-08-19 00:03:00,
2013-08-18 17:10:00,88.0,39.2,-100.00,North,353,0.0,6.3,18,0.00,,,0.00,VWS V14.01,2013-08-19 00:10:00,
2013-08-18 17:15:00,87.8,39.1,-100.00,East,101,0.0,6.3,18,0.00,,,0.00,VWS V14.01,2013-08-19 00:15:00,
2013-08-18 17:20:00,87.8,40.5,-100.00,NNW,331,4.9,6.3,19,0.00,,,0.00,VWS V14.01,2013-08-19 00:20:00,
2013-08-18 17:25:00,88.0,40.6,-100.00,ENE,65,0.0,6.3,19,0.00,,,0.00,VWS V14.01,2013-08-19 00:25:00,
2013-08-18 19:24:00,88.0,40.6,-100.00,SE,146,2.7,6.3,19,0.00,,,0.00,VWS V14.01,2013-08-19 02:24:00,
2013-08-18 19:29:00,82.0,41.7,-100.00,SE,130,0.0,6.3,24,0.00,,,0.00,VWS V14.01,2013-08-19 02:29:00,
2013-08-18 19:34:00,81.3,42.2,-100.00,North,3,0.0,6.3,25,0.00,,,0.00,VWS V14.01,2013-08-19 02:34:00,
2013-08-18 19:39:00,80.8,42.7,-100.00,North,353,0.0,6.3,26,0.00,,,0.00,VWS V14.01,2013-08-19 02:39:00,
2013-08-18 19:44:00,80.4,45.3,-100.00,NE,44,0.0,6.3,29,0.00,,,0.00,VWS V14.01,2013-08-19 02:44:00,
2013-08-18 19:49:00,79.9,45.7,-100.00,North,357,0.0,6.3,30,0.00,,,0.00,VWS V14.01,2013-08-19 02:49:00,
2013-08-18 19:54:00,79.3,45.2,-100.00,North,11,0.0,6.3,30,0.00,,,0.00,VWS V14.01,2013-08-19 02:54:00,
2013-08-18 19:59:00,78.6,45.5,-100.00,North,0,0.0,6.3,31,0.00,,,0.00,VWS V14.01,2013-08-19 02:59:00,
2013-08-18 20:04:00,77.9,45.7,-100.00,NNE,23,0.0,3.1,32,0.00,,,0.00,VWS V14.01,2013-08-19 03:04:00,
2013-08-18 20:09:00,77.4,45.2,-100.00,North,9,0.0,3.6,32,0.00,,,0.00,VWS V14.01,2013-08-19 03:09:00,
2013-08-18 20:14:00,77.0,44.9,-100.00,North,0,0.0,3.6,32,0.00,,,0.00,VWS V14.01,2013-08-19 03:14:00,